Terminal Aerodrome Forecast
Issued by NWS Sioux Falls, SD

Home | Current Version | Previous Version | Graphics & Text | Print | Product List | Glossary On
Versions: 1 2 3 4 5 6 7 8 9 10 11 12 13
000
FTUS43 KFSD 261130
TAFHON
TAF
KHON 261130Z 2612/2712 36008KT P6SM BKN120
     FM261800 36011KT P6SM SCT120 BKN200
     FM270100 28005KT P6SM SCT100
     FM270600 25004KT P6SM SCT090=

USA.gov is the U.S. government's official web portal to all federal, state and local government web resources and services.